createdAt,value
2022-07-25T00:00:34.827Z,8.38
2022-07-25T00:03:03.608Z,8.38
2022-07-25T00:05:37.386Z,8.30
2022-07-25T00:08:06.780Z,7.25
2022-07-25T00:10:36.852Z,8.52
2022-07-25T00:13:05.348Z,8.60
2022-07-25T00:15:33.816Z,9.23
2022-07-25T00:18:02.275Z,8.88
2022-07-25T00:20:30.647Z,9.05
2022-07-25T00:22:59.172Z,9.63
2022-07-25T00:25:27.767Z,8.82
2022-07-25T00:27:57.446Z,9.20
2022-07-25T00:30:25.935Z,8.90
2022-07-25T00:32:54.342Z,8.20
2022-07-25T00:35:22.952Z,8.35
2022-07-25T00:37:51.560Z,8.70
2022-07-25T00:40:19.875Z,7.70
2022-07-25T00:42:48.241Z,8.40
2022-07-25T00:45:18.028Z,8.60
2022-07-25T00:47:46.384Z,8.20
2022-07-25T00:50:14.926Z,7.97
2022-07-25T00:52:43.292Z,8.45
2022-07-25T00:55:11.921Z,8.63
2022-07-25T00:57:40.261Z,8.40
2022-07-25T01:00:09.901Z,8.60
2022-07-25T01:02:40.566Z,7.50
2022-07-25T01:05:10.248Z,8.27
2022-07-25T01:07:39.794Z,8.23
2022-07-25T01:10:10.002Z,8.32
2022-07-25T01:12:51.880Z,8.15
2022-07-25T01:15:20.534Z,7.50
2022-07-25T01:17:50.658Z,8.48
2022-07-25T01:20:21.074Z,8.20
2022-07-25T01:22:49.901Z,8.50
2022-07-25T01:25:22.539Z,7.75
2022-07-25T01:27:55.123Z,7.90
2022-07-25T01:30:25.325Z,7.57
2022-07-25T01:32:54.254Z,7.55
2022-07-25T01:35:24.114Z,7.38
2022-07-25T01:37:52.553Z,8.00
2022-07-25T01:40:21.565Z,7.95
2022-07-25T01:42:49.974Z,7.38
2022-07-25T01:45:18.362Z,7.53
2022-07-25T01:47:46.874Z,6.75
2022-07-25T01:50:15.482Z,7.60
2022-07-25T01:52:45.462Z,7.82
2022-07-25T01:55:14.480Z,7.90
2022-07-25T01:57:49.588Z,8.20
2022-07-25T02:00:19.310Z,7.90
2022-07-25T02:02:48.076Z,7.85
2022-07-25T02:05:17.452Z,7.97
2022-07-25T02:07:47.274Z,7.93
2022-07-25T02:10:16.102Z,8.25
2022-07-25T02:12:44.741Z,8.30
2022-07-25T02:15:13.275Z,8.23
2022-07-25T02:17:41.655Z,8.15
2022-07-25T02:20:10.499Z,8.38
2022-07-25T02:22:38.832Z,8.10
2022-07-25T02:25:09.139Z,8.07
2022-07-25T02:27:38.158Z,8.57
2022-07-25T02:30:07.028Z,8.00
2022-07-25T02:32:35.519Z,8.23
2022-07-25T02:35:03.909Z,8.07
2022-07-25T02:37:41.298Z,8.32
2022-07-25T02:40:11.865Z,9.00
2022-07-25T02:42:40.202Z,8.13
2022-07-25T02:45:09.225Z,8.15
2022-07-25T02:47:37.591Z,7.95
2022-07-25T02:50:06.503Z,7.53
2022-07-25T02:52:36.836Z,7.88
2022-07-25T02:55:09.539Z,7.63
2022-07-25T02:57:39.875Z,7.47
2022-07-25T03:00:08.945Z,7.22
2022-07-25T03:02:37.316Z,7.65
2022-07-25T03:05:08.280Z,8.05
2022-07-25T03:07:36.969Z,7.88
2022-07-25T03:10:10.948Z,8.20
2022-07-25T03:12:41.869Z,8.40
2022-07-25T03:15:11.267Z,7.95
2022-07-25T03:17:40.019Z,8.43
2022-07-25T03:20:10.169Z,8.02
2022-07-25T03:22:38.865Z,8.43
2022-07-25T03:25:15.567Z,7.55
2022-07-25T03:27:51.396Z,8.13
2022-07-25T03:30:19.829Z,7.75
2022-07-25T03:32:48.158Z,7.95
2022-07-25T03:35:16.606Z,7.63
2022-07-25T03:37:45.674Z,7.53
2022-07-25T03:40:14.563Z,7.50
2022-07-25T03:42:44.396Z,7.68
2022-07-25T03:45:14.265Z,7.35
2022-07-25T03:47:42.561Z,7.10
2022-07-25T03:50:11.367Z,7.03
2022-07-25T03:52:39.762Z,6.93
2022-07-25T03:55:08.579Z,7.22
2022-07-25T03:57:36.982Z,7.25
2022-07-25T04:00:05.919Z,8.02
2022-07-25T04:02:37.500Z,7.22
2022-07-25T04:05:06.373Z,7.43
2022-07-25T04:07:34.796Z,7.47
2022-07-25T04:10:03.240Z,7.63
2022-07-25T04:12:31.555Z,7.65
2022-07-25T04:14:59.930Z,6.78
2022-07-25T04:17:28.279Z,6.63
2022-07-25T04:19:58.037Z,6.70
2022-07-25T04:22:26.951Z,6.88
2022-07-25T04:24:55.356Z,7.03
2022-07-25T04:27:23.761Z,7.53
2022-07-25T04:29:52.153Z,6.78
2022-07-25T04:32:23.459Z,7.10
2022-07-25T04:34:54.812Z,7.25
2022-07-25T04:37:24.529Z,7.07
2022-07-25T04:39:52.909Z,7.03
2022-07-25T04:42:21.220Z,6.90
2022-07-25T04:44:49.589Z,7.35
2022-07-25T04:47:18.109Z,6.75
2022-07-25T04:49:46.531Z,7.43
2022-07-25T04:52:14.848Z,7.05
2022-07-25T04:54:44.936Z,7.22
2022-07-25T04:57:13.263Z,6.88
2022-07-25T04:59:41.660Z,7.45
2022-07-25T05:02:10.113Z,7.30
2022-07-25T05:04:44.837Z,7.40
2022-07-25T05:07:13.702Z,7.68
2022-07-25T05:09:42.066Z,7.68
2022-07-25T05:12:11.916Z,7.28
2022-07-25T05:14:40.285Z,7.63
2022-07-25T05:17:08.743Z,8.32
2022-07-25T05:19:37.162Z,7.10
2022-07-25T05:22:05.733Z,7.07
2022-07-25T05:24:35.342Z,7.60
2022-07-25T05:27:03.937Z,6.95
2022-07-25T05:29:34.057Z,7.25
2022-07-25T05:32:02.507Z,6.55
2022-07-25T05:34:30.994Z,6.50
2022-07-25T05:36:59.282Z,7.03
2022-07-25T05:39:28.895Z,7.13
2022-07-25T05:41:57.251Z,7.30
2022-07-25T05:44:25.583Z,6.97
2022-07-25T05:46:55.350Z,6.05
2022-07-25T05:49:24.029Z,6.95
2022-07-25T05:51:52.594Z,6.53
2022-07-25T05:54:20.892Z,6.72
2022-07-25T05:56:49.243Z,6.93
2022-07-25T05:59:17.839Z,6.85
2022-07-25T06:01:46.271Z,5.93
2022-07-25T06:04:16.117Z,6.75
2022-07-25T06:06:50.921Z,6.38
2022-07-25T06:09:19.267Z,6.50
2022-07-25T06:11:54.612Z,6.10
2022-07-25T06:14:29.638Z,5.75
2022-07-25T06:16:58.021Z,5.82
2022-07-25T06:19:27.711Z,5.80
2022-07-25T06:21:56.051Z,6.55
2022-07-25T06:24:24.316Z,6.00
2022-07-25T06:26:52.624Z,6.70
2022-07-25T06:29:20.918Z,5.95
2022-07-25T06:31:49.319Z,6.28
2022-07-25T06:34:17.731Z,5.95
2022-07-25T06:36:47.448Z,6.22
2022-07-25T06:39:15.790Z,5.82
2022-07-25T06:41:44.178Z,6.50
2022-07-25T06:44:12.630Z,5.70
2022-07-25T06:46:41.546Z,6.15
2022-07-25T06:49:10.250Z,5.47
2022-07-25T06:51:38.628Z,5.82
2022-07-25T06:54:09.040Z,6.20
2022-07-25T06:56:37.567Z,5.90
2022-07-25T06:59:05.935Z,5.82
2022-07-25T07:01:34.291Z,5.72
2022-07-25T07:04:02.829Z,5.70
2022-07-25T07:06:31.425Z,5.70
2022-07-25T07:08:59.756Z,5.88
2022-07-25T07:11:29.474Z,5.03
2022-07-25T07:13:57.790Z,5.60
2022-07-25T07:16:26.257Z,5.63
2022-07-25T07:18:54.569Z,5.10
2022-07-25T07:21:35.245Z,5.95
2022-07-25T07:24:03.513Z,5.60
2022-07-25T07:26:53.538Z,5.25
2022-07-25T07:29:21.894Z,5.50
2022-07-25T07:31:50.375Z,5.50
2022-07-25T07:34:18.841Z,5.40
2022-07-25T07:36:47.065Z,5.32
2022-07-25T07:39:16.552Z,5.25
2022-07-25T07:41:44.858Z,5.38
2022-07-25T07:44:14.487Z,5.47
2022-07-25T07:46:42.877Z,5.18
2022-07-25T07:49:11.553Z,5.63
2022-07-25T07:51:40.192Z,5.93
2022-07-25T07:54:26.007Z,5.30
2022-07-25T07:56:54.290Z,5.28
2022-07-25T07:59:23.936Z,4.95
2022-07-25T08:01:52.261Z,5.28
2022-07-25T08:04:20.536Z,5.78
2022-07-25T08:06:48.783Z,5.55
2022-07-25T08:09:17.058Z,5.38
2022-07-25T08:11:45.414Z,5.22
2022-07-25T08:14:13.682Z,5.88
2022-07-25T08:16:43.315Z,5.20
2022-07-25T08:19:11.586Z,5.10
2022-07-25T08:21:39.858Z,5.35
2022-07-25T08:24:08.572Z,5.35
2022-07-25T08:26:37.424Z,5.10
2022-07-25T08:29:18.769Z,5.18
2022-07-25T08:31:49.740Z,5.35
2022-07-25T08:34:19.474Z,4.97
2022-07-25T08:36:47.883Z,5.38
2022-07-25T08:39:16.504Z,5.22
2022-07-25T08:41:45.029Z,5.80
2022-07-25T08:44:14.588Z,5.25
2022-07-25T08:46:43.011Z,5.45
2022-07-25T08:49:13.186Z,5.45
2022-07-25T08:51:41.641Z,5.47
2022-07-25T08:54:10.795Z,5.50
2022-07-25T08:56:39.194Z,5.25
2022-07-25T08:59:10.151Z,5.68
2022-07-25T09:01:40.452Z,5.00
2022-07-25T09:04:10.037Z,5.28
2022-07-25T09:06:50.287Z,5.57
2022-07-25T09:09:18.932Z,5.43
2022-07-25T09:11:47.179Z,5.50
2022-07-25T09:14:15.654Z,5.60
2022-07-25T09:16:45.289Z,6.00
2022-07-25T09:19:15.098Z,5.47
2022-07-25T09:21:45.622Z,5.72
2022-07-25T09:24:15.811Z,5.40
2022-07-25T09:26:48.655Z,5.53
2022-07-25T09:29:20.711Z,5.50
2022-07-25T09:31:49.124Z,5.80
2022-07-25T09:34:32.050Z,5.90
2022-07-25T09:37:02.038Z,5.82
2022-07-25T09:39:40.732Z,5.45
2022-07-25T09:42:21.536Z,6.05
2022-07-25T09:44:59.452Z,5.88
2022-07-25T09:47:27.714Z,5.93
2022-07-25T09:49:56.087Z,5.57
2022-07-25T09:52:25.790Z,6.20
2022-07-25T09:54:54.755Z,5.95
2022-07-25T09:57:23.624Z,5.65
2022-07-25T09:59:51.918Z,5.57
2022-07-25T10:02:26.572Z,5.43
2022-07-25T10:05:01.444Z,5.72
2022-07-25T10:07:31.628Z,5.70
2022-07-25T10:10:01.214Z,5.40
2022-07-25T10:12:29.467Z,6.43
2022-07-25T10:15:11.298Z,5.72
2022-07-25T10:17:40.452Z,5.35
2022-07-25T10:20:10.046Z,5.57
2022-07-25T10:22:55.621Z,5.85
2022-07-25T10:25:24.923Z,5.40
2022-07-25T10:28:00.078Z,6.03
2022-07-25T10:30:29.750Z,5.88
2022-07-25T10:32:58.940Z,5.50
2022-07-25T10:35:27.863Z,5.60
2022-07-25T10:37:58.676Z,5.95
2022-07-25T10:40:27.873Z,5.80
2022-07-25T10:43:02.701Z,5.97
2022-07-25T10:45:39.392Z,5.80
2022-07-25T10:48:11.487Z,6.00
2022-07-25T10:50:56.031Z,5.82
2022-07-25T10:53:34.501Z,6.13
2022-07-25T10:56:07.619Z,6.50
2022-07-25T10:58:50.603Z,6.35
2022-07-25T11:01:23.031Z,6.50
2022-07-25T11:03:51.515Z,6.40
2022-07-25T11:06:32.898Z,6.10
2022-07-25T11:09:03.407Z,7.22
2022-07-25T11:11:35.713Z,6.43
2022-07-25T11:14:04.030Z,6.80
2022-07-25T11:16:32.467Z,6.68
2022-07-25T11:19:00.931Z,6.63
2022-07-25T11:21:29.251Z,6.70
2022-07-25T11:23:57.531Z,6.90
2022-07-25T11:26:27.166Z,6.32
2022-07-25T11:28:55.379Z,6.57
2022-07-25T11:31:24.708Z,6.45
2022-07-25T11:33:53.023Z,6.07
2022-07-25T11:36:21.406Z,6.18
2022-07-25T11:38:50.673Z,5.97
2022-07-25T11:41:30.846Z,6.55
2022-07-25T11:43:59.161Z,5.95
2022-07-25T11:46:27.511Z,5.95
2022-07-25T11:49:05.503Z,6.50
2022-07-25T11:51:38.082Z,6.38
2022-07-25T11:54:10.588Z,6.68
2022-07-25T11:56:42.887Z,6.65
2022-07-25T11:59:12.415Z,5.63
2022-07-25T12:01:41.676Z,5.20
2022-07-25T12:04:11.214Z,5.22
2022-07-25T12:06:39.972Z,5.85
2022-07-25T12:09:18.008Z,5.13
2022-07-25T12:11:48.812Z,4.60
2022-07-25T12:14:17.282Z,4.75
2022-07-25T12:16:45.695Z,4.20
2022-07-25T12:19:20.463Z,3.92
2022-07-25T12:21:48.832Z,4.43
2022-07-25T12:24:17.127Z,4.18
2022-07-25T12:26:45.383Z,4.05
2022-07-25T12:29:15.012Z,3.53
2022-07-25T12:31:43.263Z,3.70
2022-07-25T12:34:11.628Z,4.05
2022-07-25T12:36:45.026Z,5.53
2022-07-25T12:39:13.425Z,4.45
2022-07-25T12:41:42.686Z,3.80
2022-07-25T12:44:11.327Z,4.68
2022-07-25T12:46:47.370Z,4.05
2022-07-25T12:49:18.031Z,3.97
2022-07-25T12:51:46.371Z,4.00
2022-07-25T12:54:21.682Z,3.60
2022-07-25T12:56:50.820Z,3.55
2022-07-25T12:59:19.261Z,3.10
2022-07-25T13:01:48.954Z,2.97
2022-07-25T13:04:17.351Z,2.85
2022-07-25T13:06:45.753Z,3.15
2022-07-25T13:09:14.067Z,2.70
2022-07-25T13:11:42.386Z,2.30
2022-07-25T13:14:10.767Z,2.30
2022-07-25T13:16:39.150Z,2.20
2022-07-25T13:19:09.492Z,2.28
2022-07-25T13:21:38.183Z,3.53
2022-07-25T13:24:07.256Z,2.30
2022-07-25T13:26:35.725Z,2.05
2022-07-25T13:29:04.121Z,2.95
2022-07-25T13:31:32.508Z,1.95
2022-07-25T13:34:00.840Z,2.22
2022-07-25T13:36:30.556Z,2.20
2022-07-25T13:38:58.846Z,2.30
2022-07-25T13:41:27.792Z,2.25
2022-07-25T13:43:56.363Z,2.25
2022-07-25T13:46:24.771Z,2.35
2022-07-25T13:48:53.290Z,2.17
2022-07-25T13:51:21.704Z,1.90
2022-07-25T13:53:51.457Z,2.28
2022-07-25T13:56:22.800Z,2.28
2022-07-25T13:58:51.287Z,2.38
2022-07-25T14:01:19.780Z,2.22
2022-07-25T14:03:48.460Z,2.00
2022-07-25T14:06:16.978Z,2.75
2022-07-25T14:08:45.532Z,3.28
2022-07-25T14:11:15.286Z,2.50
2022-07-25T14:13:45.300Z,2.20
2022-07-25T14:16:16.611Z,2.35
2022-07-25T14:18:45.148Z,2.05
2022-07-25T14:21:13.616Z,2.55
2022-07-25T14:23:41.992Z,2.45
2022-07-25T14:26:10.321Z,2.28
2022-07-25T14:28:39.971Z,2.17
2022-07-25T14:31:08.505Z,2.42
2022-07-25T14:33:39.891Z,2.75
2022-07-25T14:36:08.643Z,2.88
2022-07-25T14:38:37.237Z,2.50
2022-07-25T14:41:10.670Z,2.50
2022-07-25T14:43:42.498Z,2.60
2022-07-25T14:46:11.143Z,2.83
2022-07-25T14:48:39.906Z,2.45
2022-07-25T14:51:08.524Z,2.60
2022-07-25T14:53:36.994Z,2.90
2022-07-25T14:56:06.128Z,3.60
2022-07-25T14:58:34.645Z,2.50
2022-07-25T15:01:04.369Z,2.30
2022-07-25T15:03:33.176Z,2.45
2022-07-25T15:06:01.992Z,2.60
2022-07-25T15:08:30.757Z,2.95
2022-07-25T15:10:59.039Z,3.03
2022-07-25T15:13:31.764Z,2.70
2022-07-25T15:16:00.438Z,2.55
2022-07-25T15:18:30.371Z,2.72
2022-07-25T15:20:58.737Z,3.17
2022-07-25T15:23:30.412Z,3.15
2022-07-25T15:26:02.280Z,3.15
2022-07-25T15:28:31.694Z,2.70
2022-07-25T15:31:00.108Z,3.03
2022-07-25T15:33:30.100Z,3.10
2022-07-25T15:35:58.654Z,3.30
2022-07-25T15:38:27.035Z,3.35
2022-07-25T15:40:55.410Z,3.10
2022-07-25T15:43:23.723Z,3.25
2022-07-25T15:45:52.285Z,3.25
2022-07-25T15:48:20.755Z,3.47
2022-07-25T15:50:52.481Z,3.20
2022-07-25T15:53:21.064Z,3.03
2022-07-25T15:55:49.397Z,3.15
2022-07-25T15:58:17.699Z,3.05
2022-07-25T16:00:46.114Z,3.13
2022-07-25T16:03:14.839Z,3.30
2022-07-25T16:05:43.389Z,2.78
2022-07-25T16:08:13.386Z,2.92
2022-07-25T16:10:41.753Z,3.10
2022-07-25T16:13:10.108Z,3.05
2022-07-25T16:15:38.434Z,2.85
2022-07-25T16:18:06.918Z,3.10
2022-07-25T16:20:35.263Z,2.88
2022-07-25T16:23:03.569Z,3.13
2022-07-25T16:25:33.253Z,2.90
2022-07-25T16:28:01.586Z,3.03
2022-07-25T16:30:30.195Z,2.80
2022-07-25T16:32:58.473Z,3.00
2022-07-25T16:35:26.801Z,2.88
2022-07-25T16:37:55.077Z,3.53
2022-07-25T16:40:28.738Z,3.70
2022-07-25T16:43:00.315Z,2.92
2022-07-25T16:45:28.898Z,3.33
2022-07-25T16:47:57.404Z,3.22
2022-07-25T16:50:25.762Z,3.10
2022-07-25T16:52:54.973Z,3.42
2022-07-25T16:55:23.369Z,3.25
2022-07-25T16:57:51.716Z,3.28
2022-07-25T17:00:21.439Z,3.25
2022-07-25T17:02:49.802Z,3.17
2022-07-25T17:05:18.443Z,3.90
2022-07-25T17:07:48.659Z,3.22
2022-07-25T17:10:17.003Z,3.83
2022-07-25T17:12:45.388Z,3.90
2022-07-25T17:15:13.849Z,3.80
2022-07-25T17:17:43.523Z,3.45
2022-07-25T17:20:12.147Z,3.28
2022-07-25T17:22:40.490Z,3.45
2022-07-25T17:25:09.451Z,3.17
2022-07-25T17:27:40.772Z,2.92
2022-07-25T17:30:09.893Z,3.03
2022-07-25T17:32:39.296Z,3.10
2022-07-25T17:35:09.474Z,3.13
2022-07-25T17:37:37.906Z,3.20
2022-07-25T17:40:06.665Z,3.30
2022-07-25T17:42:35.240Z,3.10
2022-07-25T17:45:06.922Z,2.72
2022-07-25T17:47:35.803Z,2.50
2022-07-25T17:50:04.437Z,3.20
2022-07-25T17:52:34.364Z,2.55
2022-07-25T17:55:02.865Z,2.72
2022-07-25T17:57:31.364Z,2.95
2022-07-25T17:59:59.760Z,3.03
2022-07-25T18:02:28.241Z,2.75
2022-07-25T18:04:56.665Z,2.83
2022-07-25T18:07:25.097Z,3.53
2022-07-25T18:09:54.812Z,3.60
2022-07-25T18:12:28.969Z,3.13
2022-07-25T18:14:58.072Z,2.78
2022-07-25T18:17:26.684Z,2.50
2022-07-25T18:19:55.060Z,1.95
2022-07-25T18:22:23.580Z,2.20
2022-07-25T18:24:51.971Z,2.30
2022-07-25T18:27:21.693Z,2.35
2022-07-25T18:29:50.147Z,2.00
2022-07-25T18:32:18.488Z,2.03
2022-07-25T18:34:46.943Z,2.25
2022-07-25T18:37:15.336Z,2.13
2022-07-25T18:39:44.106Z,2.20
2022-07-25T18:42:12.562Z,2.20
2022-07-25T18:44:42.427Z,2.08
2022-07-25T18:47:11.147Z,1.92
2022-07-25T18:49:39.640Z,2.10
2022-07-25T18:52:08.077Z,1.52
2022-07-25T18:54:36.460Z,2.10
2022-07-25T18:57:06.433Z,2.10
2022-07-25T18:59:34.830Z,2.15
2022-07-25T19:02:05.540Z,1.50
2022-07-25T19:04:34.013Z,2.53
2022-07-25T19:07:02.432Z,1.88
2022-07-25T19:09:30.703Z,1.83
2022-07-25T19:11:59.017Z,2.05
2022-07-25T19:14:27.947Z,2.10
2022-07-25T19:16:57.495Z,1.73
2022-07-25T19:19:27.209Z,2.20
2022-07-25T19:21:55.499Z,1.80
2022-07-25T19:24:23.991Z,2.28
2022-07-25T19:26:52.576Z,1.58
2022-07-25T19:29:22.209Z,1.90
2022-07-25T19:31:50.783Z,1.95
2022-07-25T19:34:19.082Z,1.73
2022-07-25T19:36:48.778Z,2.08
2022-07-25T19:39:17.416Z,1.83
2022-07-25T19:41:47.181Z,1.75
2022-07-25T19:44:15.661Z,1.88
2022-07-25T19:46:44.764Z,1.73
2022-07-25T19:49:13.366Z,1.77
2022-07-25T19:51:41.758Z,1.83
2022-07-25T19:54:11.908Z,1.73
2022-07-25T19:56:40.403Z,1.63
2022-07-25T19:59:08.741Z,1.83
2022-07-25T20:01:39.375Z,2.03
2022-07-25T20:04:09.158Z,1.65
2022-07-25T20:06:37.885Z,1.65
2022-07-25T20:09:06.634Z,1.95
2022-07-25T20:11:37.666Z,1.90
2022-07-25T20:14:06.872Z,1.77
2022-07-25T20:16:35.916Z,1.70
2022-07-25T20:19:05.109Z,1.70
2022-07-25T20:21:34.297Z,2.17
2022-07-25T20:24:02.573Z,2.08
2022-07-25T20:26:31.051Z,1.42
2022-07-25T20:29:00.979Z,1.80
2022-07-25T20:31:29.549Z,1.50
2022-07-25T20:33:57.913Z,1.50
2022-07-25T20:36:26.193Z,1.58
2022-07-25T20:38:54.415Z,1.30
2022-07-25T20:41:24.162Z,1.70
2022-07-25T20:43:52.472Z,1.70
2022-07-25T20:46:22.350Z,1.13
2022-07-25T20:48:50.914Z,1.70
2022-07-25T20:51:19.213Z,1.45
2022-07-25T20:53:53.255Z,1.65
2022-07-25T20:56:21.946Z,2.05
2022-07-25T20:58:50.395Z,1.85
2022-07-25T21:01:18.727Z,1.50
2022-07-25T21:03:48.449Z,1.40
2022-07-25T21:06:16.726Z,1.33
2022-07-25T21:08:45.013Z,1.52
2022-07-25T21:11:13.307Z,1.38
2022-07-25T21:13:41.596Z,1.48
2022-07-25T21:16:10.056Z,1.60
2022-07-25T21:18:38.373Z,1.80
2022-07-25T21:21:12.112Z,1.85
2022-07-25T21:23:41.635Z,1.30
2022-07-25T21:26:13.380Z,1.73
2022-07-25T21:28:41.676Z,1.27
2022-07-25T21:31:09.971Z,1.90
2022-07-25T21:33:38.510Z,1.88
2022-07-25T21:36:09.912Z,1.80
2022-07-25T21:38:38.485Z,1.60
2022-07-25T21:41:07.515Z,2.13
2022-07-25T21:43:35.871Z,1.65
2022-07-25T21:46:04.221Z,1.75
2022-07-25T21:48:50.634Z,1.70
2022-07-25T21:51:24.418Z,1.70
2022-07-25T21:53:52.908Z,1.80
2022-07-25T21:56:21.536Z,1.88
2022-07-25T21:58:49.935Z,1.80
2022-07-25T22:01:18.272Z,1.95
2022-07-25T22:03:46.729Z,1.52
2022-07-25T22:06:15.064Z,1.77
2022-07-25T22:08:44.927Z,2.13
2022-07-25T22:11:34.698Z,1.83
2022-07-25T22:14:01.643Z,2.00
2022-07-25T22:16:30.023Z,2.03
2022-07-25T22:18:59.957Z,2.00
2022-07-25T22:21:28.742Z,2.05
2022-07-25T22:23:58.450Z,2.08
2022-07-25T22:26:26.894Z,2.05
2022-07-25T22:28:55.254Z,1.80
2022-07-25T22:31:23.602Z,1.88
2022-07-25T22:33:51.988Z,1.83
2022-07-25T22:36:20.349Z,1.98
2022-07-25T22:38:50.028Z,1.88
2022-07-25T22:41:19.709Z,2.15
2022-07-25T22:43:56.828Z,2.10
2022-07-25T22:46:27.670Z,1.90
2022-07-25T22:48:56.271Z,2.00
2022-07-25T22:51:24.613Z,1.90
2022-07-25T22:53:52.993Z,2.17
2022-07-25T22:56:22.842Z,2.20
2022-07-25T22:58:51.097Z,2.20
2022-07-25T23:01:19.498Z,2.92
2022-07-25T23:03:49.960Z,2.30
2022-07-25T23:06:18.656Z,1.73
2022-07-25T23:08:47.248Z,2.22
2022-07-25T23:11:15.526Z,2.17
2022-07-25T23:13:48.338Z,2.47
2022-07-25T23:16:16.926Z,2.28
2022-07-25T23:18:46.372Z,2.72
2022-07-25T23:21:14.681Z,2.28
2022-07-25T23:23:43.046Z,2.47
2022-07-25T23:26:11.440Z,2.55
2022-07-25T23:28:39.750Z,1.90
2022-07-25T23:31:09.645Z,2.42
2022-07-25T23:33:37.967Z,2.15
2022-07-25T23:36:06.628Z,2.15
2022-07-25T23:38:34.924Z,2.75
2022-07-25T23:41:03.211Z,2.50
2022-07-25T23:43:55.818Z,2.40
2022-07-25T23:46:24.539Z,2.60
2022-07-25T23:48:56.561Z,2.35
2022-07-25T23:51:24.918Z,2.30
2022-07-25T23:53:53.273Z,2.45
2022-07-25T23:56:21.583Z,2.28
2022-07-25T23:58:50.969Z,2.28
